sensor_id;sensor_type;location;lat;lon;timestamp;P1;durP1;ratioP1;P2;durP2;ratioP2
61741;SDS011;47650;49.848;9.620;2024-03-07T00:00:07;46.72;;;32.72;;
61741;SDS011;47650;49.848;9.620;2024-03-07T00:05:09;44.90;;;31.30;;
61741;SDS011;47650;49.848;9.620;2024-03-07T00:07:35;45.47;;;31.98;;
61741;SDS011;47650;49.848;9.620;2024-03-07T00:10:03;48.60;;;34.17;;
61741;SDS011;47650;49.848;9.620;2024-03-07T00:12:32;49.97;;;34.10;;
61741;SDS011;47650;49.848;9.620;2024-03-07T00:14:58;47.50;;;33.80;;
61741;SDS011;47650;49.848;9.620;2024-03-07T00:17:23;50.97;;;34.90;;
61741;SDS011;47650;49.848;9.620;2024-03-07T00:19:49;56.88;;;36.42;;
61741;SDS011;47650;49.848;9.620;2024-03-07T00:22:15;53.17;;;33.97;;
61741;SDS011;47650;49.848;9.620;2024-03-07T00:24:41;58.03;;;37.47;;
61741;SDS011;47650;49.848;9.620;2024-03-07T00:27:07;53.63;;;37.42;;
61741;SDS011;47650;49.848;9.620;2024-03-07T00:29:33;56.03;;;37.25;;
61741;SDS011;47650;49.848;9.620;2024-03-07T00:32:03;61.35;;;39.10;;
61741;SDS011;47650;49.848;9.620;2024-03-07T00:34:29;59.65;;;36.72;;
61741;SDS011;47650;49.848;9.620;2024-03-07T00:37:02;64.88;;;38.25;;
61741;SDS011;47650;49.848;9.620;2024-03-07T00:39:29;61.05;;;37.20;;
61741;SDS011;47650;49.848;9.620;2024-03-07T00:41:54;60.60;;;37.95;;
61741;SDS011;47650;49.848;9.620;2024-03-07T00:44:20;58.72;;;38.10;;
61741;SDS011;47650;49.848;9.620;2024-03-07T00:46:47;60.03;;;38.65;;
61741;SDS011;47650;49.848;9.620;2024-03-07T00:49:15;69.28;;;39.53;;
61741;SDS011;47650;49.848;9.620;2024-03-07T00:51:42;68.88;;;39.60;;
61741;SDS011;47650;49.848;9.620;2024-03-07T00:54:09;66.88;;;39.88;;
61741;SDS011;47650;49.848;9.620;2024-03-07T00:56:38;57.40;;;36.50;;
61741;SDS011;47650;49.848;9.620;2024-03-07T00:59:05;60.53;;;38.10;;
61741;SDS011;47650;49.848;9.620;2024-03-07T01:01:37;60.97;;;36.88;;
61741;SDS011;47650;49.848;9.620;2024-03-07T01:04:07;66.03;;;39.33;;
61741;SDS011;47650;49.848;9.620;2024-03-07T01:06:34;57.72;;;36.92;;
61741;SDS011;47650;49.848;9.620;2024-03-07T01:09:01;59.33;;;36.45;;
61741;SDS011;47650;49.848;9.620;2024-03-07T01:11:29;65.45;;;38.85;;
61741;SDS011;47650;49.848;9.620;2024-03-07T01:14:00;68.47;;;37.92;;
61741;SDS011;47650;49.848;9.620;2024-03-07T01:16:26;61.05;;;36.60;;
61741;SDS011;47650;49.848;9.620;2024-03-07T01:18:51;66.00;;;38.25;;
61741;SDS011;47650;49.848;9.620;2024-03-07T01:21:16;62.55;;;37.38;;
61741;SDS011;47650;49.848;9.620;2024-03-07T01:23:42;58.63;;;37.15;;
61741;SDS011;47650;49.848;9.620;2024-03-07T01:26:09;64.25;;;39.05;;
61741;SDS011;47650;49.848;9.620;2024-03-07T01:28:37;65.78;;;39.70;;
61741;SDS011;47650;49.848;9.620;2024-03-07T01:31:05;66.82;;;38.85;;
61741;SDS011;47650;49.848;9.620;2024-03-07T01:33:30;74.43;;;40.10;;
61741;SDS011;47650;49.848;9.620;2024-03-07T01:35:55;65.05;;;37.42;;
61741;SDS011;47650;49.848;9.620;2024-03-07T01:38:21;63.88;;;38.30;;
61741;SDS011;47650;49.848;9.620;2024-03-07T01:40:47;76.38;;;40.42;;
61741;SDS011;47650;49.848;9.620;2024-03-07T01:43:13;72.10;;;39.33;;
61741;SDS011;47650;49.848;9.620;2024-03-07T01:45:46;65.55;;;38.05;;
61741;SDS011;47650;49.848;9.620;2024-03-07T01:48:14;74.13;;;39.88;;
61741;SDS011;47650;49.848;9.620;2024-03-07T01:50:49;70.45;;;39.45;;
61741;SDS011;47650;49.848;9.620;2024-03-07T01:53:15;79.40;;;41.30;;
61741;SDS011;47650;49.848;9.620;2024-03-07T01:55:41;72.18;;;38.97;;
61741;SDS011;47650;49.848;9.620;2024-03-07T01:58:11;82.20;;;43.53;;
61741;SDS011;47650;49.848;9.620;2024-03-07T02:00:42;80.63;;;43.08;;
61741;SDS011;47650;49.848;9.620;2024-03-07T02:03:09;73.57;;;39.08;;
61741;SDS011;47650;49.848;9.620;2024-03-07T02:05:38;83.75;;;41.47;;
61741;SDS011;47650;49.848;9.620;2024-03-07T02:08:08;80.05;;;40.38;;
61741;SDS011;47650;49.848;9.620;2024-03-07T02:10:41;74.57;;;39.35;;
61741;SDS011;47650;49.848;9.620;2024-03-07T02:13:08;76.80;;;40.03;;
61741;SDS011;47650;49.848;9.620;2024-03-07T02:15:34;76.13;;;39.67;;
61741;SDS011;47650;49.848;9.620;2024-03-07T02:17:59;79.00;;;42.10;;
61741;SDS011;47650;49.848;9.620;2024-03-07T02:20:25;93.88;;;43.05;;
61741;SDS011;47650;49.848;9.620;2024-03-07T02:22:51;69.45;;;38.08;;
61741;SDS011;47650;49.848;9.620;2024-03-07T02:25:21;80.00;;;39.20;;
61741;SDS011;47650;49.848;9.620;2024-03-07T02:27:48;79.28;;;39.92;;
61741;SDS011;47650;49.848;9.620;2024-03-07T02:30:14;79.78;;;41.85;;
61741;SDS011;47650;49.848;9.620;2024-03-07T02:32:41;86.20;;;42.47;;
61741;SDS011;47650;49.848;9.620;2024-03-07T02:35:07;94.40;;;43.17;;
61741;SDS011;47650;49.848;9.620;2024-03-07T02:37:34;82.40;;;41.80;;
61741;SDS011;47650;49.848;9.620;2024-03-07T02:39:59;86.88;;;42.83;;
61741;SDS011;47650;49.848;9.620;2024-03-07T02:42:31;78.53;;;39.83;;
61741;SDS011;47650;49.848;9.620;2024-03-07T02:45:00;83.28;;;41.20;;
61741;SDS011;47650;49.848;9.620;2024-03-07T02:47:26;79.78;;;40.10;;
61741;SDS011;47650;49.848;9.620;2024-03-07T02:49:53;86.45;;;43.38;;
61741;SDS011;47650;49.848;9.620;2024-03-07T02:52:19;79.70;;;41.75;;
61741;SDS011;47650;49.848;9.620;2024-03-07T02:54:51;83.90;;;43.17;;
61741;SDS011;47650;49.848;9.620;2024-03-07T02:57:20;89.15;;;42.78;;
61741;SDS011;47650;49.848;9.620;2024-03-07T02:59:45;70.38;;;39.50;;
61741;SDS011;47650;49.848;9.620;2024-03-07T03:02:11;81.43;;;40.83;;
61741;SDS011;47650;49.848;9.620;2024-03-07T03:04:37;84.18;;;41.97;;
61741;SDS011;47650;49.848;9.620;2024-03-07T03:07:03;83.80;;;41.05;;
61741;SDS011;47650;49.848;9.620;2024-03-07T03:09:35;77.28;;;39.83;;
61741;SDS011;47650;49.848;9.620;2024-03-07T03:12:09;74.82;;;39.67;;
61741;SDS011;47650;49.848;9.620;2024-03-07T03:14:36;75.13;;;39.85;;
61741;SDS011;47650;49.848;9.620;2024-03-07T03:17:02;83.90;;;40.65;;
61741;SDS011;47650;49.848;9.620;2024-03-07T03:19:30;82.95;;;40.58;;
61741;SDS011;47650;49.848;9.620;2024-03-07T03:21:58;74.05;;;40.25;;
61741;SDS011;47650;49.848;9.620;2024-03-07T03:24:24;70.15;;;40.50;;
61741;SDS011;47650;49.848;9.620;2024-03-07T03:26:52;95.68;;;42.05;;
61741;SDS011;47650;49.848;9.620;2024-03-07T03:29:17;79.93;;;40.08;;
61741;SDS011;47650;49.848;9.620;2024-03-07T03:31:43;65.10;;;37.67;;
61741;SDS011;47650;49.848;9.620;2024-03-07T03:34:09;81.90;;;41.80;;
61741;SDS011;47650;49.848;9.620;2024-03-07T03:36:36;64.88;;;38.72;;
61741;SDS011;47650;49.848;9.620;2024-03-07T03:39:04;61.67;;;36.90;;
61741;SDS011;47650;49.848;9.620;2024-03-07T03:41:38;64.97;;;36.97;;
61741;SDS011;47650;49.848;9.620;2024-03-07T03:44:06;70.10;;;39.05;;
61741;SDS011;47650;49.848;9.620;2024-03-07T03:46:32;75.28;;;39.38;;
61741;SDS011;47650;49.848;9.620;2024-03-07T03:48:58;62.45;;;38.30;;
61741;SDS011;47650;49.848;9.620;2024-03-07T03:51:31;57.22;;;37.60;;
61741;SDS011;47650;49.848;9.620;2024-03-07T03:53:58;63.92;;;37.63;;
61741;SDS011;47650;49.848;9.620;2024-03-07T03:56:23;57.03;;;36.20;;
61741;SDS011;47650;49.848;9.620;2024-03-07T03:58:49;57.42;;;35.83;;
61741;SDS011;47650;49.848;9.620;2024-03-07T04:01:16;67.78;;;38.80;;
61741;SDS011;47650;49.848;9.620;2024-03-07T04:03:41;60.97;;;36.42;;
61741;SDS011;47650;49.848;9.620;2024-03-07T04:06:11;61.53;;;36.85;;
61741;SDS011;47650;49.848;9.620;2024-03-07T04:08:38;55.92;;;38.03;;
61741;SDS011;47650;49.848;9.620;2024-03-07T04:11:04;64.97;;;38.17;;
61741;SDS011;47650;49.848;9.620;2024-03-07T04:13:34;63.53;;;36.60;;
61741;SDS011;47650;49.848;9.620;2024-03-07T04:16:02;60.05;;;35.83;;
61741;SDS011;47650;49.848;9.620;2024-03-07T04:18:27;56.97;;;36.75;;
61741;SDS011;47650;49.848;9.620;2024-03-07T04:20:56;46.55;;;33.42;;
61741;SDS011;47650;49.848;9.620;2024-03-07T04:23:21;54.00;;;35.40;;
61741;SDS011;47650;49.848;9.620;2024-03-07T04:25:47;52.85;;;35.30;;
61741;SDS011;47650;49.848;9.620;2024-03-07T04:28:12;58.58;;;37.83;;
61741;SDS011;47650;49.848;9.620;2024-03-07T04:30:40;49.60;;;33.15;;
61741;SDS011;47650;49.848;9.620;2024-03-07T04:33:08;52.45;;;34.30;;
61741;SDS011;47650;49.848;9.620;2024-03-07T04:35:34;45.67;;;32.80;;
61741;SDS011;47650;49.848;9.620;2024-03-07T04:37:59;50.42;;;34.17;;
61741;SDS011;47650;49.848;9.620;2024-03-07T04:40:24;53.20;;;35.50;;
61741;SDS011;47650;49.848;9.620;2024-03-07T04:42:50;57.38;;;36.05;;
61741;SDS011;47650;49.848;9.620;2024-03-07T04:45:16;45.40;;;31.42;;
61741;SDS011;47650;49.848;9.620;2024-03-07T04:47:55;52.45;;;34.53;;
61741;SDS011;47650;49.848;9.620;2024-03-07T04:50:22;47.28;;;32.08;;
61741;SDS011;47650;49.848;9.620;2024-03-07T04:52:48;52.08;;;34.40;;
61741;SDS011;47650;49.848;9.620;2024-03-07T04:57:43;52.55;;;34.92;;
61741;SDS011;47650;49.848;9.620;2024-03-07T05:00:10;46.85;;;33.97;;
61741;SDS011;47650;49.848;9.620;2024-03-07T05:02:40;49.90;;;33.70;;
61741;SDS011;47650;49.848;9.620;2024-03-07T05:05:06;50.15;;;35.38;;
61741;SDS011;47650;49.848;9.620;2024-03-07T05:07:34;51.67;;;35.38;;
61741;SDS011;47650;49.848;9.620;2024-03-07T05:10:03;47.00;;;33.55;;
61741;SDS011;47650;49.848;9.620;2024-03-07T05:12:31;43.33;;;31.50;;
61741;SDS011;47650;49.848;9.620;2024-03-07T05:15:01;46.35;;;31.98;;
61741;SDS011;47650;49.848;9.620;2024-03-07T05:17:40;46.30;;;32.92;;
61741;SDS011;47650;49.848;9.620;2024-03-07T05:20:08;48.78;;;34.33;;
61741;SDS011;47650;49.848;9.620;2024-03-07T05:22:35;51.45;;;35.05;;
61741;SDS011;47650;49.848;9.620;2024-03-07T05:25:16;47.05;;;33.08;;
61741;SDS011;47650;49.848;9.620;2024-03-07T05:27:43;50.10;;;32.75;;
61741;SDS011;47650;49.848;9.620;2024-03-07T05:30:13;46.50;;;32.25;;
61741;SDS011;47650;49.848;9.620;2024-03-07T05:32:40;46.58;;;32.72;;
61741;SDS011;47650;49.848;9.620;2024-03-07T05:35:05;44.75;;;33.30;;
61741;SDS011;47650;49.848;9.620;2024-03-07T05:37:37;44.55;;;31.15;;
61741;SDS011;47650;49.848;9.620;2024-03-07T05:40:07;44.53;;;30.08;;
61741;SDS011;47650;49.848;9.620;2024-03-07T05:42:34;47.10;;;33.17;;
61741;SDS011;47650;49.848;9.620;2024-03-07T05:44:59;41.80;;;31.55;;
61741;SDS011;47650;49.848;9.620;2024-03-07T05:47:26;45.72;;;31.90;;
61741;SDS011;47650;49.848;9.620;2024-03-07T05:49:53;43.65;;;32.42;;
61741;SDS011;47650;49.848;9.620;2024-03-07T05:52:22;39.83;;;28.80;;
61741;SDS011;47650;49.848;9.620;2024-03-07T05:54:47;38.75;;;29.65;;
61741;SDS011;47650;49.848;9.620;2024-03-07T05:57:14;41.97;;;30.67;;
61741;SDS011;47650;49.848;9.620;2024-03-07T05:59:39;40.33;;;29.60;;
61741;SDS011;47650;49.848;9.620;2024-03-07T06:02:10;38.50;;;28.67;;
61741;SDS011;47650;49.848;9.620;2024-03-07T06:04:40;37.75;;;28.58;;
61741;SDS011;47650;49.848;9.620;2024-03-07T06:07:08;35.70;;;27.60;;
61741;SDS011;47650;49.848;9.620;2024-03-07T06:09:35;33.42;;;23.85;;
61741;SDS011;47650;49.848;9.620;2024-03-07T06:12:01;30.70;;;23.98;;
61741;SDS011;47650;49.848;9.620;2024-03-07T06:14:29;29.63;;;22.15;;
61741;SDS011;47650;49.848;9.620;2024-03-07T06:16:56;25.58;;;20.55;;
61741;SDS011;47650;49.848;9.620;2024-03-07T06:19:23;25.33;;;18.75;;
61741;SDS011;47650;49.848;9.620;2024-03-07T06:21:48;25.45;;;18.85;;
61741;SDS011;47650;49.848;9.620;2024-03-07T06:24:14;25.20;;;19.17;;
61741;SDS011;47650;49.848;9.620;2024-03-07T06:26:40;24.17;;;19.27;;
61741;SDS011;47650;49.848;9.620;2024-03-07T06:29:21;25.10;;;18.38;;
61741;SDS011;47650;49.848;9.620;2024-03-07T06:31:48;21.48;;;17.48;;
61741;SDS011;47650;49.848;9.620;2024-03-07T06:34:19;23.02;;;16.38;;
61741;SDS011;47650;49.848;9.620;2024-03-07T06:36:47;26.38;;;17.95;;
61741;SDS011;47650;49.848;9.620;2024-03-07T06:39:12;20.65;;;16.25;;
61741;SDS011;47650;49.848;9.620;2024-03-07T06:41:38;22.08;;;17.33;;
61741;SDS011;47650;49.848;9.620;2024-03-07T06:44:14;21.40;;;17.25;;
61741;SDS011;47650;49.848;9.620;2024-03-07T06:46:39;20.75;;;16.25;;
61741;SDS011;47650;49.848;9.620;2024-03-07T06:49:13;22.00;;;17.08;;
61741;SDS011;47650;49.848;9.620;2024-03-07T06:51:45;21.30;;;16.60;;
61741;SDS011;47650;49.848;9.620;2024-03-07T06:54:11;21.17;;;17.13;;
61741;SDS011;47650;49.848;9.620;2024-03-07T06:56:36;23.73;;;16.98;;
61741;SDS011;47650;49.848;9.620;2024-03-07T06:59:07;18.25;;;15.98;;
61741;SDS011;47650;49.848;9.620;2024-03-07T07:01:34;18.33;;;15.65;;
61741;SDS011;47650;49.848;9.620;2024-03-07T07:06:59;19.00;;;16.42;;
61741;SDS011;47650;49.848;9.620;2024-03-07T07:09:25;20.77;;;16.00;;
61741;SDS011;47650;49.848;9.620;2024-03-07T07:11:53;23.38;;;15.13;;
61741;SDS011;47650;49.848;9.620;2024-03-07T07:14:31;19.48;;;15.57;;
61741;SDS011;47650;49.848;9.620;2024-03-07T07:16:56;20.73;;;14.43;;
61741;SDS011;47650;49.848;9.620;2024-03-07T07:19:22;19.08;;;14.77;;
61741;SDS011;47650;49.848;9.620;2024-03-07T07:21:48;18.13;;;14.27;;
61741;SDS011;47650;49.848;9.620;2024-03-07T07:24:25;17.98;;;14.55;;
61741;SDS011;47650;49.848;9.620;2024-03-07T07:26:53;17.38;;;14.60;;
61741;SDS011;47650;49.848;9.620;2024-03-07T07:29:19;19.13;;;15.13;;
61741;SDS011;47650;49.848;9.620;2024-03-07T07:31:46;17.30;;;14.30;;
61741;SDS011;47650;49.848;9.620;2024-03-07T07:34:11;16.83;;;13.98;;
61741;SDS011;47650;49.848;9.620;2024-03-07T07:36:42;17.95;;;14.55;;
61741;SDS011;47650;49.848;9.620;2024-03-07T07:39:07;17.35;;;15.20;;
61741;SDS011;47650;49.848;9.620;2024-03-07T07:41:41;17.40;;;14.32;;
61741;SDS011;47650;49.848;9.620;2024-03-07T07:44:07;21.42;;;15.43;;
61741;SDS011;47650;49.848;9.620;2024-03-07T07:46:33;17.15;;;13.77;;
61741;SDS011;47650;49.848;9.620;2024-03-07T07:49:10;19.08;;;14.65;;
61741;SDS011;47650;49.848;9.620;2024-03-07T07:51:36;15.90;;;13.23;;
61741;SDS011;47650;49.848;9.620;2024-03-07T07:54:01;17.15;;;14.23;;
61741;SDS011;47650;49.848;9.620;2024-03-07T07:56:27;18.95;;;14.35;;
61741;SDS011;47650;49.848;9.620;2024-03-07T07:58:53;17.95;;;14.23;;
61741;SDS011;47650;49.848;9.620;2024-03-07T08:01:18;17.08;;;14.70;;
61741;SDS011;47650;49.848;9.620;2024-03-07T08:03:44;18.40;;;14.27;;
61741;SDS011;47650;49.848;9.620;2024-03-07T08:06:10;17.38;;;14.63;;
61741;SDS011;47650;49.848;9.620;2024-03-07T08:08:35;18.35;;;14.85;;
61741;SDS011;47650;49.848;9.620;2024-03-07T08:11:01;19.63;;;15.07;;
61741;SDS011;47650;49.848;9.620;2024-03-07T08:13:28;18.33;;;14.60;;
61741;SDS011;47650;49.848;9.620;2024-03-07T08:15:54;17.55;;;13.98;;
61741;SDS011;47650;49.848;9.620;2024-03-07T08:18:20;18.50;;;15.68;;
61741;SDS011;47650;49.848;9.620;2024-03-07T08:20:48;18.85;;;15.68;;
61741;SDS011;47650;49.848;9.620;2024-03-07T08:23:14;21.70;;;16.23;;
61741;SDS011;47650;49.848;9.620;2024-03-07T08:25:39;17.98;;;15.18;;
61741;SDS011;47650;49.848;9.620;2024-03-07T08:28:05;21.73;;;15.35;;
61741;SDS011;47650;49.848;9.620;2024-03-07T08:30:34;19.58;;;15.40;;
61741;SDS011;47650;49.848;9.620;2024-03-07T08:33:00;20.80;;;16.13;;
61741;SDS011;47650;49.848;9.620;2024-03-07T08:35:30;17.38;;;15.43;;
61741;SDS011;47650;49.848;9.620;2024-03-07T08:37:55;19.10;;;14.48;;
61741;SDS011;47650;49.848;9.620;2024-03-07T08:40:26;20.48;;;16.10;;
61741;SDS011;47650;49.848;9.620;2024-03-07T08:45:21;20.77;;;15.75;;
61741;SDS011;47650;49.848;9.620;2024-03-07T08:47:52;22.58;;;16.13;;
61741;SDS011;47650;49.848;9.620;2024-03-07T08:50:20;21.15;;;16.15;;
61741;SDS011;47650;49.848;9.620;2024-03-07T08:52:47;19.83;;;16.48;;
61741;SDS011;47650;49.848;9.620;2024-03-07T08:55:14;21.92;;;16.27;;
61741;SDS011;47650;49.848;9.620;2024-03-07T08:57:44;18.73;;;15.55;;
61741;SDS011;47650;49.848;9.620;2024-03-07T09:00:14;19.55;;;16.33;;
61741;SDS011;47650;49.848;9.620;2024-03-07T09:02:47;18.48;;;16.08;;
61741;SDS011;47650;49.848;9.620;2024-03-07T09:05:16;22.95;;;17.30;;
61741;SDS011;47650;49.848;9.620;2024-03-07T09:07:41;21.13;;;16.67;;
61741;SDS011;47650;49.848;9.620;2024-03-07T09:10:07;19.52;;;17.10;;
61741;SDS011;47650;49.848;9.620;2024-03-07T09:12:32;24.20;;;17.92;;
61741;SDS011;47650;49.848;9.620;2024-03-07T09:14:58;19.85;;;16.80;;
61741;SDS011;47650;49.848;9.620;2024-03-07T09:17:23;21.00;;;16.70;;
61741;SDS011;47650;49.848;9.620;2024-03-07T09:19:49;20.13;;;17.25;;
61741;SDS011;47650;49.848;9.620;2024-03-07T09:22:15;21.75;;;16.92;;
61741;SDS011;47650;49.848;9.620;2024-03-07T09:24:40;22.08;;;18.13;;
61741;SDS011;47650;49.848;9.620;2024-03-07T09:27:13;23.35;;;18.25;;
61741;SDS011;47650;49.848;9.620;2024-03-07T09:29:41;21.77;;;16.95;;
61741;SDS011;47650;49.848;9.620;2024-03-07T09:32:08;19.98;;;17.42;;
61741;SDS011;47650;49.848;9.620;2024-03-07T09:34:35;22.75;;;18.63;;
61741;SDS011;47650;49.848;9.620;2024-03-07T09:37:01;21.88;;;17.48;;
61741;SDS011;47650;49.848;9.620;2024-03-07T09:39:27;23.98;;;18.20;;
61741;SDS011;47650;49.848;9.620;2024-03-07T09:41:53;21.30;;;17.77;;
61741;SDS011;47650;49.848;9.620;2024-03-07T09:44:20;20.08;;;16.30;;
61741;SDS011;47650;49.848;9.620;2024-03-07T09:46:50;19.77;;;16.15;;
61741;SDS011;47650;49.848;9.620;2024-03-07T09:49:16;21.13;;;16.55;;
61741;SDS011;47650;49.848;9.620;2024-03-07T09:51:43;21.98;;;17.48;;
61741;SDS011;47650;49.848;9.620;2024-03-07T09:54:09;19.25;;;16.10;;
61741;SDS011;47650;49.848;9.620;2024-03-07T09:56:35;20.95;;;17.05;;
61741;SDS011;47650;49.848;9.620;2024-03-07T09:59:02;21.58;;;16.75;;
61741;SDS011;47650;49.848;9.620;2024-03-07T10:01:29;21.73;;;17.38;;
61741;SDS011;47650;49.848;9.620;2024-03-07T10:04:02;19.20;;;16.30;;
61741;SDS011;47650;49.848;9.620;2024-03-07T10:06:43;20.20;;;16.90;;
61741;SDS011;47650;49.848;9.620;2024-03-07T10:09:13;20.85;;;17.85;;
61741;SDS011;47650;49.848;9.620;2024-03-07T10:11:42;21.42;;;18.08;;
61741;SDS011;47650;49.848;9.620;2024-03-07T10:14:09;18.85;;;16.80;;
61741;SDS011;47650;49.848;9.620;2024-03-07T10:16:43;19.30;;;17.38;;
61741;SDS011;47650;49.848;9.620;2024-03-07T10:19:10;19.05;;;17.13;;
61741;SDS011;47650;49.848;9.620;2024-03-07T10:21:42;18.48;;;16.58;;
61741;SDS011;47650;49.848;9.620;2024-03-07T10:24:08;19.08;;;16.30;;
61741;SDS011;47650;49.848;9.620;2024-03-07T10:26:36;18.48;;;16.58;;
61741;SDS011;47650;49.848;9.620;2024-03-07T10:29:02;20.02;;;16.45;;
61741;SDS011;47650;49.848;9.620;2024-03-07T10:31:31;18.17;;;16.30;;
61741;SDS011;47650;49.848;9.620;2024-03-07T10:33:58;18.10;;;16.27;;
61741;SDS011;47650;49.848;9.620;2024-03-07T10:36:33;18.55;;;16.75;;
61741;SDS011;47650;49.848;9.620;2024-03-07T10:39:00;17.20;;;15.48;;
61741;SDS011;47650;49.848;9.620;2024-03-07T10:41:28;19.45;;;17.65;;
61741;SDS011;47650;49.848;9.620;2024-03-07T10:44:01;17.17;;;15.43;;
61741;SDS011;47650;49.848;9.620;2024-03-07T10:46:29;15.88;;;14.27;;
61741;SDS011;47650;49.848;9.620;2024-03-07T10:48:56;17.48;;;15.93;;
61741;SDS011;47650;49.848;9.620;2024-03-07T10:51:40;17.45;;;15.73;;
61741;SDS011;47650;49.848;9.620;2024-03-07T10:54:13;15.90;;;14.60;;
61741;SDS011;47650;49.848;9.620;2024-03-07T10:56:56;16.52;;;14.93;;
61741;SDS011;47650;49.848;9.620;2024-03-07T10:59:34;17.27;;;15.52;;
61741;SDS011;47650;49.848;9.620;2024-03-07T11:02:14;16.63;;;15.05;;
61741;SDS011;47650;49.848;9.620;2024-03-07T11:04:49;17.92;;;16.25;;
61741;SDS011;47650;49.848;9.620;2024-03-07T11:07:20;17.88;;;16.08;;
61741;SDS011;47650;49.848;9.620;2024-03-07T11:09:49;16.50;;;14.93;;
61741;SDS011;47650;49.848;9.620;2024-03-07T11:12:24;16.98;;;15.38;;
61741;SDS011;47650;49.848;9.620;2024-03-07T11:14:55;16.60;;;15.00;;
61741;SDS011;47650;49.848;9.620;2024-03-07T11:17:22;16.45;;;14.85;;
61741;SDS011;47650;49.848;9.620;2024-03-07T11:19:49;16.33;;;14.65;;
61741;SDS011;47650;49.848;9.620;2024-03-07T11:22:31;15.35;;;13.75;;
61741;SDS011;47650;49.848;9.620;2024-03-07T11:25:02;14.45;;;13.15;;
61741;SDS011;47650;49.848;9.620;2024-03-07T11:27:32;15.07;;;13.68;;
61741;SDS011;47650;49.848;9.620;2024-03-07T11:30:04;14.20;;;12.98;;
61741;SDS011;47650;49.848;9.620;2024-03-07T11:32:39;14.15;;;12.82;;
61741;SDS011;47650;49.848;9.620;2024-03-07T11:35:06;14.35;;;13.07;;
61741;SDS011;47650;49.848;9.620;2024-03-07T11:37:41;15.07;;;13.55;;
61741;SDS011;47650;49.848;9.620;2024-03-07T11:40:59;14.48;;;13.18;;
61741;SDS011;47650;49.848;9.620;2024-03-07T11:42:56;14.57;;;13.18;;
61741;SDS011;47650;49.848;9.620;2024-03-07T11:45:24;13.75;;;12.25;;
61741;SDS011;47650;49.848;9.620;2024-03-07T11:47:52;14.23;;;12.70;;
61741;SDS011;47650;49.848;9.620;2024-03-07T11:50:43;14.60;;;13.10;;
61741;SDS011;47650;49.848;9.620;2024-03-07T11:53:08;14.05;;;12.55;;
61741;SDS011;47650;49.848;9.620;2024-03-07T11:55:38;14.13;;;12.68;;
61741;SDS011;47650;49.848;9.620;2024-03-07T12:00:40;14.07;;;12.15;;
61741;SDS011;47650;49.848;9.620;2024-03-07T12:03:10;14.93;;;13.32;;
61741;SDS011;47650;49.848;9.620;2024-03-07T12:08:19;13.18;;;11.77;;
61741;SDS011;47650;49.848;9.620;2024-03-07T12:10:49;14.15;;;12.68;;
61741;SDS011;47650;49.848;9.620;2024-03-07T12:13:18;14.80;;;13.23;;
61741;SDS011;47650;49.848;9.620;2024-03-07T12:15:44;15.48;;;12.48;;
61741;SDS011;47650;49.848;9.620;2024-03-07T12:18:12;14.95;;;13.05;;
61741;SDS011;47650;49.848;9.620;2024-03-07T12:20:43;14.75;;;13.10;;
61741;SDS011;47650;49.848;9.620;2024-03-07T12:23:24;15.75;;;13.52;;
61741;SDS011;47650;49.848;9.620;2024-03-07T12:26:00;13.57;;;12.10;;
61741;SDS011;47650;49.848;9.620;2024-03-07T12:28:28;13.65;;;11.80;;
61741;SDS011;47650;49.848;9.620;2024-03-07T12:30:58;15.15;;;12.10;;
61741;SDS011;47650;49.848;9.620;2024-03-07T12:33:27;14.05;;;11.07;;
61741;SDS011;47650;49.848;9.620;2024-03-07T12:35:54;12.80;;;11.50;;
61741;SDS011;47650;49.848;9.620;2024-03-07T12:38:31;13.32;;;12.02;;
61741;SDS011;47650;49.848;9.620;2024-03-07T12:41:04;13.45;;;12.07;;
61741;SDS011;47650;49.848;9.620;2024-03-07T12:43:38;13.15;;;11.05;;
61741;SDS011;47650;49.848;9.620;2024-03-07T12:46:12;13.57;;;11.70;;
61741;SDS011;47650;49.848;9.620;2024-03-07T12:48:38;12.70;;;11.40;;
61741;SDS011;47650;49.848;9.620;2024-03-07T12:51:06;12.88;;;10.75;;
61741;SDS011;47650;49.848;9.620;2024-03-07T12:53:34;13.02;;;11.38;;
61741;SDS011;47650;49.848;9.620;2024-03-07T12:56:02;13.00;;;11.60;;
61741;SDS011;47650;49.848;9.620;2024-03-07T12:58:28;12.25;;;10.95;;
61741;SDS011;47650;49.848;9.620;2024-03-07T13:00:55;12.90;;;10.77;;
61741;SDS011;47650;49.848;9.620;2024-03-07T13:03:23;12.63;;;11.30;;
61741;SDS011;47650;49.848;9.620;2024-03-07T13:05:54;13.07;;;11.75;;
61741;SDS011;47650;49.848;9.620;2024-03-07T13:08:21;16.65;;;12.70;;
61741;SDS011;47650;49.848;9.620;2024-03-07T13:10:51;13.25;;;11.48;;
61741;SDS011;47650;49.848;9.620;2024-03-07T13:13:16;13.43;;;11.50;;
61741;SDS011;47650;49.848;9.620;2024-03-07T13:15:43;12.70;;;11.40;;
61741;SDS011;47650;49.848;9.620;2024-03-07T13:18:19;14.45;;;12.15;;
61741;SDS011;47650;49.848;9.620;2024-03-07T13:20:45;13.85;;;11.60;;
61741;SDS011;47650;49.848;9.620;2024-03-07T13:23:13;14.07;;;11.75;;
61741;SDS011;47650;49.848;9.620;2024-03-07T13:25:42;13.63;;;11.60;;
61741;SDS011;47650;49.848;9.620;2024-03-07T13:28:11;16.58;;;14.13;;
61741;SDS011;47650;49.848;9.620;2024-03-07T13:30:40;14.90;;;12.57;;
61741;SDS011;47650;49.848;9.620;2024-03-07T13:33:06;13.63;;;12.23;;
61741;SDS011;47650;49.848;9.620;2024-03-07T13:35:31;13.93;;;11.68;;
61741;SDS011;47650;49.848;9.620;2024-03-07T13:37:58;14.65;;;12.57;;
61741;SDS011;47650;49.848;9.620;2024-03-07T13:40:25;13.38;;;11.77;;
61741;SDS011;47650;49.848;9.620;2024-03-07T13:42:59;14.90;;;12.55;;
61741;SDS011;47650;49.848;9.620;2024-03-07T13:45:29;13.38;;;11.88;;
61741;SDS011;47650;49.848;9.620;2024-03-07T13:47:56;14.18;;;12.10;;
61741;SDS011;47650;49.848;9.620;2024-03-07T13:50:24;14.88;;;12.57;;
61741;SDS011;47650;49.848;9.620;2024-03-07T13:52:51;15.60;;;12.85;;
61741;SDS011;47650;49.848;9.620;2024-03-07T13:58:35;12.80;;;11.30;;
61741;SDS011;47650;49.848;9.620;2024-03-07T14:03:43;13.20;;;11.35;;
61741;SDS011;47650;49.848;9.620;2024-03-07T14:06:21;14.65;;;11.57;;
61741;SDS011;47650;49.848;9.620;2024-03-07T14:09:03;13.27;;;11.18;;
61741;SDS011;47650;49.848;9.620;2024-03-07T14:26:49;13.75;;;12.02;;
61741;SDS011;47650;49.848;9.620;2024-03-07T14:32:35;15.70;;;11.90;;
61741;SDS011;47650;49.848;9.620;2024-03-07T14:37:54;12.98;;;11.50;;
61741;SDS011;47650;49.848;9.620;2024-03-07T14:40:26;14.10;;;11.88;;
61741;SDS011;47650;49.848;9.620;2024-03-07T14:42:53;14.55;;;11.68;;
61741;SDS011;47650;49.848;9.620;2024-03-07T14:45:22;15.30;;;12.02;;
61741;SDS011;47650;49.848;9.620;2024-03-07T14:47:58;13.98;;;12.00;;
61741;SDS011;47650;49.848;9.620;2024-03-07T14:50:24;16.95;;;13.52;;
61741;SDS011;47650;49.848;9.620;2024-03-07T14:52:53;15.25;;;13.18;;
61741;SDS011;47650;49.848;9.620;2024-03-07T14:55:19;18.40;;;13.55;;
61741;SDS011;47650;49.848;9.620;2024-03-07T14:57:44;18.23;;;13.80;;
61741;SDS011;47650;49.848;9.620;2024-03-07T15:00:16;17.85;;;14.35;;
61741;SDS011;47650;49.848;9.620;2024-03-07T15:02:48;18.58;;;14.13;;
61741;SDS011;47650;49.848;9.620;2024-03-07T15:05:15;16.00;;;12.98;;
61741;SDS011;47650;49.848;9.620;2024-03-07T15:07:48;19.38;;;14.05;;
61741;SDS011;47650;49.848;9.620;2024-03-07T15:10:18;16.23;;;13.50;;